North East, Maryland
Current Conditions -  °F | °C
As of 6:51 PM on Friday 21 Nov 2014 (Local Time) from KILG Reporting Station
Clear Clear  
Wind Chill: 23°   Ceiling: Unl
Heat Index: 30°   Visibility: 10mi
Dew Point: 10°   Wind: 7mph
Humidity: 43%   Direction: 290°WNW
Pressure: 30.53"   Gusts: NA
Location:  39.6°N, 75.94°W
Report Text: KILG 212351Z 29006KT 10SM CLR M01/M12 A3053 RMK AO2 SLP338 T10111122 10028 21017 51026
Loading
Personal Weather Stations






























Interactive Weather Map New forecast layout! Learn more

10-Day Weather Forecast

Advertisements
Track Severe Weather on mobile